createdAt,value
2022-08-11T00:02:04.268Z,100774.03
2022-08-11T00:04:37.913Z,100776.28
2022-08-11T00:07:10.070Z,100772.56
2022-08-11T00:09:40.533Z,100790.81
2022-08-11T00:12:18.153Z,100780.09
2022-08-11T00:14:55.918Z,100779.28
2022-08-11T00:17:31.806Z,100775.81
2022-08-11T00:20:16.753Z,100786.56
2022-08-11T00:22:47.661Z,100775.88
2022-08-11T00:25:22.058Z,100785.47
2022-08-11T00:27:51.721Z,100773.78
2022-08-11T00:30:20.792Z,100775.75
2022-08-11T00:32:58.870Z,100786.63
2022-08-11T00:35:55.833Z,100787.13
2022-08-11T00:38:26.700Z,100790.06
2022-08-11T00:41:16.212Z,100790.06
2022-08-11T00:44:42.011Z,100784.66
2022-08-11T00:47:24.972Z,100790.81
2022-08-11T00:50:06.615Z,100778.47
2022-08-11T00:52:59.996Z,100791.69
2022-08-11T00:55:41.044Z,100782.81
2022-08-11T00:59:04.995Z,100789.72
2022-08-11T01:02:48.474Z,100787.88
2022-08-11T01:05:40.630Z,100784.78
2022-08-11T01:09:10.081Z,100786.91
2022-08-11T01:12:26.949Z,100789.88
2022-08-11T01:15:19.825Z,100794.06
2022-08-11T01:18:12.767Z,100794.94
2022-08-11T01:20:59.137Z,100789.34
2022-08-11T01:23:45.385Z,100785.06
2022-08-11T01:26:44.351Z,100790.72
2022-08-11T01:29:33.946Z,100792.81
2022-08-11T01:32:45.745Z,100783.94
2022-08-11T01:35:29.417Z,100796.38
2022-08-11T01:38:22.665Z,100785.19
2022-08-11T01:41:25.321Z,100796.63
2022-08-11T01:44:23.532Z,100789.41
2022-08-11T01:47:09.488Z,100800.47
2022-08-11T01:50:09.936Z,100788.00
2022-08-11T01:53:35.945Z,100782.47
2022-08-11T01:56:26.524Z,100787.50
2022-08-11T01:59:18.913Z,100783.22
2022-08-11T02:02:05.595Z,100798.50
2022-08-11T02:05:10.161Z,100790.81
2022-08-11T02:08:11.731Z,100795.50
2022-08-11T02:11:35.532Z,100797.09
2022-08-11T02:14:33.840Z,100792.53
2022-08-11T02:17:37.417Z,100788.72
2022-08-11T02:20:46.995Z,100799.56
2022-08-11T02:24:05.789Z,100794.50
2022-08-11T02:26:41.721Z,100796.59
2022-08-11T02:29:42.706Z,100795.84
2022-08-11T02:32:50.217Z,100786.00
2022-08-11T02:35:28.557Z,100792.41
2022-08-11T02:38:43.491Z,100791.78
2022-08-11T02:42:00.333Z,100789.28
2022-08-11T02:44:51.670Z,100781.91
2022-08-11T02:48:10.519Z,100779.19
2022-08-11T02:51:12.719Z,100786.94
2022-08-11T02:54:04.141Z,100782.50
2022-08-11T02:57:05.391Z,100766.56
2022-08-11T03:00:09.698Z,100781.34
2022-08-11T03:03:06.527Z,100775.91
2022-08-11T03:05:54.338Z,100783.91
2022-08-11T03:08:52.767Z,100776.03
2022-08-11T03:12:31.581Z,100784.06
2022-08-11T03:15:31.254Z,100771.66
2022-08-11T03:18:31.646Z,100782.13
2022-08-11T03:21:24.385Z,100790.38
2022-08-11T03:24:25.273Z,100786.28
2022-08-11T03:27:11.412Z,100785.88
2022-08-11T03:30:03.133Z,100793.88
2022-08-11T03:33:41.235Z,100784.91
2022-08-11T03:37:16.273Z,100798.06
2022-08-11T03:39:56.666Z,100803.47
2022-08-11T03:42:43.428Z,100794.59
2022-08-11T03:45:30.826Z,100801.50
2022-08-11T03:48:28.172Z,100808.88
2022-08-11T03:51:26.634Z,100807.38
2022-08-11T03:54:56.911Z,100807.72
2022-08-11T03:57:52.710Z,100797.59
2022-08-11T04:00:23.476Z,100797.25
2022-08-11T04:03:18.888Z,100805.28
2022-08-11T04:06:14.540Z,100809.91
2022-08-11T04:09:07.924Z,100807.22
2022-08-11T04:12:08.651Z,100811.03
2022-08-11T04:16:12.352Z,100811.97
2022-08-11T04:19:09.135Z,100804.09
2022-08-11T04:22:22.351Z,100810.25
2022-08-11T04:25:12.559Z,100807.53
2022-08-11T04:28:56.852Z,100806.03
2022-08-11T04:32:06.071Z,100805.19
2022-08-11T04:35:17.841Z,100792.63
2022-08-11T04:38:05.911Z,100796.16
2022-08-11T04:41:14.468Z,100802.94
2022-08-11T04:44:29.636Z,100808.88
2022-08-11T04:48:36.809Z,100811.38
2022-08-11T04:51:51.851Z,100815.78
2022-08-11T04:55:10.950Z,100810.16
2022-08-11T04:58:29.950Z,100816.44
2022-08-11T05:01:55.876Z,100821.00
2022-08-11T05:05:08.971Z,100813.13
2022-08-11T05:08:06.588Z,100808.84
2022-08-11T05:11:03.205Z,100818.34
2022-08-11T05:14:03.056Z,100817.47
2022-08-11T05:17:17.109Z,100810.44
2022-08-11T05:20:08.712Z,100818.22
2022-08-11T05:22:58.411Z,100816.38
2022-08-11T05:26:44.509Z,100821.31
2022-08-11T05:29:21.000Z,100818.38
2022-08-11T05:32:17.882Z,100822.72
2022-08-11T05:35:07.783Z,100822.72
2022-08-11T05:38:01.620Z,100821.25
2022-08-11T05:40:51.178Z,100816.84
2022-08-11T05:44:20.194Z,100822.97
2022-08-11T05:46:57.580Z,100824.25
2022-08-11T05:49:48.564Z,100821.47
2022-08-11T05:52:49.323Z,100822.09
2022-08-11T05:56:02.153Z,100819.25
2022-08-11T05:58:43.089Z,100829.28
2022-08-11T06:01:14.515Z,100839.63
2022-08-11T06:04:04.327Z,100836.56
2022-08-11T06:06:33.131Z,100840.78
2022-08-11T06:09:01.944Z,100831.66
2022-08-11T06:11:43.928Z,100835.38
2022-08-11T06:14:15.576Z,100832.44
2022-08-11T06:16:47.905Z,100839.00
2022-08-11T06:19:21.208Z,100834.06
2022-08-11T06:21:53.126Z,100840.72
2022-08-11T06:24:21.930Z,100839.31
2022-08-11T06:27:11.820Z,100842.25
2022-08-11T06:29:54.913Z,100835.38
2022-08-11T06:32:35.898Z,100830.22
2022-08-11T06:35:53.341Z,100836.25
2022-08-11T06:39:09.960Z,100837.34
2022-08-11T06:42:17.619Z,100836.72
2022-08-11T06:45:13.324Z,100834.47
2022-08-11T06:47:49.632Z,100842.91
2022-08-11T06:50:41.010Z,100843.63
2022-08-11T06:53:12.087Z,100843.50
2022-08-11T06:56:03.038Z,100838.13
2022-08-11T06:58:54.649Z,100839.19
2022-08-11T07:01:37.889Z,100831.94
2022-08-11T07:04:10.426Z,100827.50
2022-08-11T07:07:08.793Z,100832.47
2022-08-11T07:10:20.221Z,100828.25
2022-08-11T07:13:44.480Z,100833.69
2022-08-11T07:16:13.207Z,100832.81
2022-08-11T07:19:01.109Z,100848.56
2022-08-11T07:22:03.157Z,100843.91
2022-08-11T07:25:14.751Z,100836.91
2022-08-11T07:28:16.792Z,100829.94
2022-08-11T07:30:45.710Z,100837.56
2022-08-11T07:34:07.267Z,100832.84
2022-08-11T07:36:13.725Z,100828.59
2022-08-11T07:38:53.899Z,100825.19
2022-08-11T07:41:25.260Z,100828.81
2022-08-11T07:44:09.325Z,100821.50
2022-08-11T07:47:02.183Z,100817.34
2022-08-11T07:49:56.211Z,100829.44
2022-08-11T07:52:33.952Z,100814.38
2022-08-11T07:55:12.035Z,100811.81
2022-08-11T07:58:19.543Z,100817.38
2022-08-11T08:01:21.491Z,100816.72
2022-08-11T08:04:10.663Z,100818.44
2022-08-11T08:06:58.935Z,100804.81
2022-08-11T08:09:47.331Z,100815.44
2022-08-11T08:12:34.906Z,100814.84
2022-08-11T08:15:28.186Z,100822.31
2022-08-11T08:18:20.556Z,100816.13
2022-08-11T08:20:50.717Z,100828.19
2022-08-11T08:23:35.202Z,100819.69
2022-08-11T08:26:30.425Z,100827.00
2022-08-11T08:29:21.862Z,100823.56
2022-08-11T08:31:51.321Z,100833.16
2022-08-11T08:34:20.563Z,100819.97
2022-08-11T08:36:51.856Z,100830.56
2022-08-11T08:39:21.900Z,100824.81
2022-08-11T08:41:59.693Z,100830.53
2022-08-11T08:44:38.811Z,100833.69
2022-08-11T08:47:43.144Z,100825.75
2022-08-11T08:50:16.489Z,100826.88
2022-08-11T08:53:01.696Z,100824.28
2022-08-11T08:55:32.478Z,100818.09
2022-08-11T08:58:02.702Z,100832.41
2022-08-11T09:00:45.070Z,100819.03
2022-08-11T09:03:39.054Z,100836.00
2022-08-11T09:06:03.722Z,100837.38
2022-08-11T09:08:35.171Z,100820.88
2022-08-11T09:11:24.452Z,100838.91
2022-08-11T09:14:03.152Z,100815.00
2022-08-11T09:16:37.192Z,100824.00
2022-08-11T09:19:08.834Z,100812.31
2022-08-11T09:21:48.269Z,100818.88
2022-08-11T09:24:37.859Z,100821.16
2022-08-11T09:27:08.899Z,100818.53
2022-08-11T09:29:39.478Z,100813.44
2022-08-11T09:32:08.863Z,100812.97
2022-08-11T09:34:39.282Z,100820.09
2022-08-11T09:37:53.670Z,100812.09
2022-08-11T09:40:29.353Z,100825.63
2022-08-11T09:43:24.575Z,100817.47
2022-08-11T09:45:54.135Z,100802.94
2022-08-11T09:48:25.883Z,100815.91
2022-08-11T09:51:04.115Z,100813.72
2022-08-11T09:53:41.278Z,100819.44
2022-08-11T09:56:48.951Z,100813.81
2022-08-11T09:59:21.043Z,100818.47
2022-08-11T10:01:56.982Z,100812.50
2022-08-11T10:04:47.082Z,100801.06
2022-08-11T10:07:17.503Z,100785.13
2022-08-11T10:10:01.435Z,100784.03
2022-08-11T10:12:39.223Z,100784.69
2022-08-11T10:15:34.588Z,100767.13
2022-08-11T10:18:32.529Z,100774.22
2022-08-11T10:21:15.386Z,100766.72
2022-08-11T10:24:05.784Z,100754.59
2022-08-11T10:26:54.888Z,100749.78
2022-08-11T10:29:56.343Z,100777.09
2022-08-11T10:32:58.862Z,100768.69
2022-08-11T10:35:31.974Z,100761.19
2022-08-11T10:38:08.748Z,100754.19
2022-08-11T10:40:45.333Z,100763.78
2022-08-11T10:43:56.854Z,100753.81
2022-08-11T10:46:30.135Z,100758.69
2022-08-11T10:49:00.226Z,100755.44
2022-08-11T10:51:50.561Z,100744.28
2022-08-11T10:54:41.389Z,100744.81
2022-08-11T10:57:33.352Z,100745.31
2022-08-11T11:00:02.052Z,100731.09
2022-08-11T11:02:31.373Z,100736.78
2022-08-11T11:05:28.821Z,100728.38
2022-08-11T11:08:39.431Z,100724.63
2022-08-11T11:11:09.996Z,100720.16
2022-08-11T11:14:10.259Z,100711.25
2022-08-11T11:16:59.604Z,100706.44
2022-08-11T11:19:30.112Z,100720.00
2022-08-11T11:22:19.267Z,100714.50
2022-08-11T11:25:18.000Z,100708.00
2022-08-11T11:27:54.983Z,100703.41
2022-08-11T11:30:32.261Z,100711.44
2022-08-11T11:33:24.632Z,100695.66
2022-08-11T11:36:47.950Z,100694.81
2022-08-11T11:39:32.523Z,100692.22
2022-08-11T11:42:19.196Z,100692.22
2022-08-11T11:44:48.145Z,100662.72
2022-08-11T11:47:22.998Z,100686.00
2022-08-11T11:49:51.341Z,100684.47
2022-08-11T11:52:22.096Z,100671.94
2022-08-11T11:54:55.578Z,100668.50
2022-08-11T11:57:58.734Z,100665.59
2022-08-11T12:00:49.124Z,100664.56
2022-08-11T12:03:18.346Z,100674.69
2022-08-11T12:05:47.208Z,100657.16
2022-08-11T12:08:16.649Z,100660.06
2022-08-11T12:11:12.437Z,100646.19
2022-08-11T12:13:46.913Z,100643.91
2022-08-11T12:16:33.091Z,100622.31
2022-08-11T12:19:18.300Z,100654.72
2022-08-11T12:22:06.001Z,100653.00
2022-08-11T12:25:06.227Z,100647.84
2022-08-11T12:27:34.606Z,100649.41
2022-08-11T12:30:09.194Z,100639.09
2022-08-11T12:32:40.213Z,100640.25
2022-08-11T12:35:09.528Z,100635.66
2022-08-11T12:37:49.465Z,100628.59
2022-08-11T12:41:12.147Z,100627.19
2022-08-11T12:43:56.235Z,100630.81
2022-08-11T12:46:51.550Z,100631.13
2022-08-11T12:49:45.214Z,100610.72
2022-08-11T12:52:27.435Z,100628.16
2022-08-11T12:55:39.025Z,100610.66
2022-08-11T12:58:17.976Z,100614.75
2022-08-11T13:01:06.187Z,100601.69
2022-08-11T13:04:00.215Z,100598.78
2022-08-11T13:06:28.821Z,100604.56
2022-08-11T13:09:00.945Z,100606.59
2022-08-11T13:11:56.577Z,100594.56
2022-08-11T13:14:30.024Z,100583.06
2022-08-11T13:17:17.706Z,100586.16
2022-08-11T13:19:49.862Z,100591.97
2022-08-11T13:22:24.393Z,100593.28
2022-08-11T13:24:57.764Z,100578.41
2022-08-11T13:27:28.685Z,100589.16
2022-08-11T13:30:35.564Z,100580.06
2022-08-11T13:33:07.832Z,100588.50
2022-08-11T13:35:37.244Z,100592.09
2022-08-11T13:38:27.281Z,100566.13
2022-08-11T13:40:56.580Z,100563.06
2022-08-11T13:43:25.653Z,100568.50
2022-08-11T13:46:14.582Z,100555.81
2022-08-11T13:48:43.907Z,100565.88
2022-08-11T13:51:34.363Z,100560.66
2022-08-11T13:54:24.493Z,100557.06
2022-08-11T13:57:00.553Z,100545.41
2022-08-11T13:59:30.326Z,100545.41
2022-08-11T14:02:21.755Z,100547.63
2022-08-11T14:05:07.182Z,100537.47
2022-08-11T14:07:42.272Z,100543.75
2022-08-11T14:10:14.070Z,100527.91
2022-08-11T14:13:28.046Z,100547.84
2022-08-11T14:16:05.111Z,100519.56
2022-08-11T14:18:36.384Z,100516.91
2022-08-11T14:21:24.943Z,100520.34
2022-08-11T14:24:01.453Z,100537.31
2022-08-11T14:26:37.162Z,100535.88
2022-08-11T14:29:25.358Z,100512.16
2022-08-11T14:32:02.445Z,100509.19
2022-08-11T14:34:34.757Z,100503.91
2022-08-11T14:37:26.002Z,100497.16
2022-08-11T14:40:03.233Z,100501.22
2022-08-11T14:42:51.171Z,100506.94
2022-08-11T14:45:54.345Z,100502.72
2022-08-11T14:48:27.790Z,100496.22
2022-08-11T14:50:58.748Z,100490.59
2022-08-11T14:53:28.406Z,100488.53
2022-08-11T14:56:15.184Z,100494.69
2022-08-11T14:58:43.950Z,100474.78
2022-08-11T15:01:32.650Z,100477.97
2022-08-11T15:04:06.163Z,100472.47
2022-08-11T15:06:50.583Z,100478.44
2022-08-11T15:09:19.533Z,100477.41
2022-08-11T15:12:32.965Z,100475.34
2022-08-11T15:15:16.746Z,100463.19
2022-08-11T15:17:49.335Z,100463.66
2022-08-11T15:20:38.599Z,100469.44
2022-08-11T15:23:26.277Z,100481.47
2022-08-11T15:26:20.698Z,100468.41
2022-08-11T15:29:09.502Z,100462.69
2022-08-11T15:31:44.295Z,100449.88
2022-08-11T15:34:42.615Z,100448.56
2022-08-11T15:37:27.148Z,100459.38
2022-08-11T15:40:30.171Z,100453.47
2022-08-11T15:43:29.450Z,100444.34
2022-08-11T15:46:02.662Z,100438.41
2022-08-11T15:48:33.653Z,100445.22
2022-08-11T15:51:44.543Z,100444.19
2022-08-11T15:54:19.676Z,100442.19
2022-08-11T15:56:55.467Z,100438.50
2022-08-11T15:59:46.400Z,100441.25
2022-08-11T16:02:37.367Z,100430.16
2022-08-11T16:05:13.618Z,100440.88
2022-08-11T16:08:02.993Z,100437.66
2022-08-11T16:10:35.270Z,100432.16
2022-08-11T16:13:07.973Z,100419.53
2022-08-11T16:16:06.125Z,100434.91
2022-08-11T16:18:56.567Z,100425.69
2022-08-11T16:21:36.315Z,100434.50
2022-08-11T16:25:57.994Z,100428.56
2022-08-11T16:27:07.406Z,100440.41
2022-08-11T16:29:43.213Z,100422.22
2022-08-11T16:32:20.849Z,100428.84
2022-08-11T16:35:34.022Z,100414.22
2022-08-11T16:38:24.548Z,100420.03
2022-08-11T16:40:55.972Z,100428.28
2022-08-11T16:43:47.039Z,100417.94
2022-08-11T16:46:37.759Z,100413.84
2022-08-11T16:49:36.484Z,100415.28
2022-08-11T16:52:11.849Z,100420.13
2022-08-11T16:54:44.604Z,100417.38
2022-08-11T16:57:46.032Z,100421.47
2022-08-11T17:00:17.775Z,100419.47
2022-08-11T17:03:10.053Z,100413.50
2022-08-11T17:06:08.399Z,100404.50
2022-08-11T17:09:10.451Z,100412.53
2022-08-11T17:12:09.050Z,100413.16
2022-08-11T17:14:48.849Z,100409.41
2022-08-11T17:17:26.422Z,100407.91
2022-08-11T17:20:41.272Z,100407.03
2022-08-11T17:23:13.013Z,100400.78
2022-08-11T17:25:59.421Z,100399.25
2022-08-11T17:28:32.431Z,100398.31
2022-08-11T17:31:22.096Z,100397.47
2022-08-11T17:34:11.171Z,100390.81
2022-08-11T17:36:45.289Z,100397.19
2022-08-11T17:39:17.485Z,100391.56
2022-08-11T17:42:05.493Z,100399.81
2022-08-11T17:44:55.107Z,100403.13
2022-08-11T17:47:44.751Z,100404.09
2022-08-11T17:50:17.725Z,100393.81
2022-08-11T17:53:06.308Z,100402.91
2022-08-11T17:55:58.024Z,100401.28
2022-08-11T17:58:47.453Z,100400.59
2022-08-11T18:01:19.916Z,100402.41
2022-08-11T18:03:56.414Z,100402.75
2022-08-11T18:06:33.703Z,100403.81
2022-08-11T18:09:26.498Z,100413.28
2022-08-11T18:12:15.498Z,100423.28
2022-08-11T18:15:09.969Z,100407.44
2022-08-11T18:17:58.066Z,100424.94
2022-08-11T18:20:46.626Z,100424.63
2022-08-11T18:23:46.594Z,100426.69
2022-08-11T18:26:41.747Z,100421.63
2022-08-11T18:29:30.237Z,100428.50
2022-08-11T18:32:20.885Z,100423.91
2022-08-11T18:35:13.855Z,100419.34
2022-08-11T18:38:06.823Z,100424.88
2022-08-11T18:40:55.056Z,100428.34
2022-08-11T18:43:44.762Z,100428.19
2022-08-11T18:46:36.905Z,100434.19
2022-08-11T18:50:02.291Z,100431.69
2022-08-11T18:52:52.234Z,100434.13
2022-08-11T18:55:41.739Z,100435.84
2022-08-11T18:58:31.547Z,100431.09
2022-08-11T19:01:20.890Z,100433.34
2022-08-11T19:04:17.459Z,100435.44
2022-08-11T19:07:10.926Z,100438.19
2022-08-11T19:09:59.296Z,100434.09
2022-08-11T19:12:55.926Z,100442.31
2022-08-11T19:15:43.893Z,100453.78
2022-08-11T19:18:35.295Z,100455.84
2022-08-11T19:21:23.524Z,100459.41
2022-08-11T19:24:13.798Z,100443.84
2022-08-11T19:27:01.885Z,100461.13
2022-08-11T19:30:07.056Z,100462.47
2022-08-11T19:32:59.078Z,100449.31
2022-08-11T19:35:47.516Z,100457.16
2022-08-11T19:38:35.359Z,100457.66
2022-08-11T19:41:57.315Z,100463.75
2022-08-11T19:44:30.879Z,100459.97
2022-08-11T19:47:20.231Z,100462.66
2022-08-11T19:50:08.379Z,100450.34
2022-08-11T19:52:58.869Z,100453.88
2022-08-11T19:55:46.991Z,100454.00
2022-08-11T19:58:34.441Z,100457.69
2022-08-11T20:01:21.352Z,100460.69
2022-08-11T20:04:08.585Z,100450.72
2022-08-11T20:06:58.952Z,100460.06
2022-08-11T20:12:50.403Z,100448.09
2022-08-11T20:15:39.684Z,100459.56
2022-08-11T20:18:29.651Z,100459.50
2022-08-11T20:21:25.805Z,100455.91
2022-08-11T20:24:21.608Z,100464.88
2022-08-11T20:27:24.322Z,100468.25
2022-08-11T20:30:15.234Z,100471.94
2022-08-11T20:33:03.421Z,100474.91
2022-08-11T20:35:53.728Z,100471.41
2022-08-11T20:38:42.959Z,100477.47
2022-08-11T20:41:31.481Z,100481.41
2022-08-11T20:44:36.897Z,100488.25
2022-08-11T20:47:25.015Z,100483.88
2022-08-11T20:50:19.403Z,100469.72
2022-08-11T20:53:09.084Z,100497.00
2022-08-11T20:55:57.160Z,100495.91
2022-08-11T20:59:14.036Z,100496.75
2022-08-11T21:01:55.284Z,100485.50
2022-08-11T21:04:54.038Z,100493.81
2022-08-11T21:07:55.474Z,100500.75
2022-08-11T21:10:52.417Z,100488.00
2022-08-11T21:13:51.436Z,100486.56
2022-08-11T21:16:47.493Z,100495.91
2022-08-11T21:20:01.303Z,100495.91
2022-08-11T21:23:08.746Z,100489.16
2022-08-11T21:26:07.912Z,100495.47
2022-08-11T21:28:58.373Z,100491.34
2022-08-11T21:31:47.600Z,100494.81
2022-08-11T21:34:40.630Z,100498.25
2022-08-11T21:37:29.248Z,100498.25
2022-08-11T21:40:20.172Z,100491.81
2022-08-11T21:43:09.038Z,100488.94
2022-08-11T21:45:58.474Z,100487.41
2022-08-11T21:48:46.670Z,100487.09
2022-08-11T21:51:34.099Z,100491.41
2022-08-11T21:54:22.444Z,100484.25
2022-08-11T21:57:11.235Z,100489.66
2022-08-11T22:00:17.097Z,100479.78
2022-08-11T22:03:07.543Z,100492.19
2022-08-11T22:05:56.490Z,100478.59
2022-08-11T22:08:43.404Z,100487.06
2022-08-11T22:11:31.884Z,100484.34
2022-08-11T22:14:23.942Z,100492.19
2022-08-11T22:17:11.815Z,100487.91
2022-08-11T22:20:01.038Z,100470.41
2022-08-11T22:22:54.004Z,100489.03
2022-08-11T22:25:51.595Z,100489.19
2022-08-11T22:28:41.285Z,100481.44
2022-08-11T22:31:30.565Z,100488.88
2022-08-11T22:34:18.154Z,100485.03
2022-08-11T22:37:06.694Z,100490.19
2022-08-11T22:40:01.889Z,100491.16
2022-08-11T22:42:53.537Z,100488.75
2022-08-11T22:45:41.127Z,100492.59
2022-08-11T22:48:29.622Z,100493.44
2022-08-11T22:51:20.337Z,100484.41
2022-08-11T22:54:09.097Z,100490.44
2022-08-11T22:56:56.374Z,100483.41
2022-08-11T22:59:44.339Z,100489.00
2022-08-11T23:02:32.796Z,100490.41
2022-08-11T23:05:20.565Z,100492.13
2022-08-11T23:08:08.344Z,100484.06
2022-08-11T23:10:57.875Z,100503.38
2022-08-11T23:13:48.118Z,100505.78
2022-08-11T23:16:38.680Z,100486.47
2022-08-11T23:20:00.001Z,100493.88
2022-08-11T23:22:49.235Z,100501.72
2022-08-11T23:25:37.614Z,100496.00
2022-08-11T23:28:26.631Z,100491.50
2022-08-11T23:31:15.649Z,100498.31
2022-08-11T23:34:08.602Z,100497.72
2022-08-11T23:37:15.127Z,100487.09
2022-08-11T23:40:02.551Z,100502.00
2022-08-11T23:42:49.519Z,100496.09
2022-08-11T23:45:38.430Z,100501.38
2022-08-11T23:48:27.543Z,100490.44
2022-08-11T23:51:16.261Z,100493.44
2022-08-11T23:54:08.007Z,100492.59
2022-08-11T23:56:58.624Z,100487.72
2022-08-11T23:59:45.902Z,100492.19
